Time;durP1;ratioP1;P1;durP2;ratioP2;P2;SDS_P1;SDS_P2;PMS_P1;PMS_P2;Temp;Humidity;BMP_temperature;BMP_pressure;BME280_temperature;BME280_humidity;BME280_pressure;Samples;Min_cycle;Max_cycle;Signal;HPM_P1;HPM_P2
2024/03/11 00:01:03;;;;;;;14.52;10.18;;;;;;;7.87;75.67;94690.66;5080197;28;20102;-75
2024/03/11 00:03:28;;;;;;;15.52;10.95;;;;;;;7.97;75.18;94681.28;5079454;28;20122;-75
2024/03/11 00:05:55;;;;;;;15.65;10.75;;;;;;;7.45;75.68;94641.16;5096212;28;20038;-75
2024/03/11 00:08:21;;;;;;;16.55;11.55;;;;;;;7.77;75.70;94684.50;5113342;28;20440;-75
2024/03/11 00:10:48;;;;;;;18.20;11.50;;;;;;;7.71;76.14;94678.00;5113506;27;20050;-75
2024/03/11 00:13:16;;;;;;;16.02;11.48;;;;;;;7.57;76.54;94676.44;5100513;27;20019;-75
2024/03/11 00:15:45;;;;;;;16.25;10.73;;;;;;;7.72;76.30;94682.25;5100393;27;20027;-75
2024/03/11 00:18:12;;;;;;;16.98;9.95;;;;;;;7.65;76.58;94677.66;5117482;27;20027;-75
2024/03/11 00:20:37;;;;;;;18.70;12.80;;;;;;;7.58;76.37;94667.75;5100482;27;20030;-75
2024/03/11 00:23:03;;;;;;;15.73;11.95;;;;;;;7.53;76.86;94695.72;5099835;27;20027;-75
2024/03/11 00:25:29;;;;;;;17.25;11.75;;;;;;;7.69;76.55;94679.06;5135316;27;20094;-75
2024/03/11 00:27:57;;;;;;;16.77;11.63;;;;;;;7.49;77.14;94671.00;5080339;28;20109;-75
2024/03/11 00:30:23;;;;;;;21.95;14.50;;;;;;;7.52;77.70;94675.13;5093440;28;20048;-75
2024/03/11 00:32:52;;;;;;;18.73;12.55;;;;;;;7.43;77.90;94678.38;5075432;28;20058;-75
2024/03/11 00:35:18;;;;;;;20.73;13.68;;;;;;;7.53;78.12;94679.38;5094260;28;20056;-75
2024/03/11 00:37:45;;;;;;;20.80;13.30;;;;;;;7.59;77.82;94674.56;5076265;28;20038;-75
2024/03/11 00:40:11;;;;;;;21.27;13.00;;;;;;;7.54;77.76;94661.16;5092887;28;20066;-75
2024/03/11 00:42:39;;;;;;;26.88;16.17;;;;;;;7.44;78.40;94657.63;5092796;28;20041;-75
2024/03/11 00:45:11;;;;;;;28.00;15.52;;;;;;;7.50;78.48;94646.81;5076250;28;20028;-75
2024/03/11 00:47:39;;;;;;;20.05;13.50;;;;;;;7.50;78.51;94641.66;5076446;28;20115;-75
2024/03/11 00:50:06;;;;;;;22.73;14.15;;;;;;;7.34;79.11;94633.38;5092684;28;20031;-75
2024/03/11 00:52:33;;;;;;;22.73;14.25;;;;;;;7.51;78.71;94627.78;5092802;28;20401;-75
2024/03/11 00:54:59;;;;;;;20.48;13.57;;;;;;;7.50;79.21;94630.50;5076189;28;20456;-75
2024/03/11 00:57:25;;;;;;;18.00;11.63;;;;;;;7.60;78.42;94603.84;5094241;28;20053;-75
2024/03/11 00:59:51;;;;;;;21.27;14.10;;;;;;;7.69;77.91;94619.59;5092524;28;20035;-75
2024/03/11 01:02:16;;;;;;;19.85;13.38;;;;;;;7.50;77.69;94587.38;5059003;28;20028;-75
2024/03/11 01:04:42;;;;;;;18.60;13.30;;;;;;;7.43;78.28;94604.25;5092499;28;20043;-75
2024/03/11 01:07:08;;;;;;;16.58;11.20;;;;;;;7.88;77.95;94637.97;5075532;28;20039;-75
2024/03/11 01:09:34;;;;;;;23.70;13.63;;;;;;;7.77;77.96;94635.34;5093422;28;20039;-75
2024/03/11 01:12:00;;;;;;;20.55;13.15;;;;;;;7.77;77.36;94617.25;5092446;28;20024;-75
2024/03/11 01:14:25;;;;;;;17.92;12.18;;;;;;;7.73;77.26;94603.75;5092126;28;20490;-75
2024/03/11 01:16:51;;;;;;;18.10;11.77;;;;;;;7.82;76.52;94628.09;5092200;28;20116;-75
2024/03/11 01:19:20;;;;;;;26.13;16.83;;;;;;;7.73;76.89;94628.78;5058528;28;20413;-75
2024/03/11 01:21:46;;;;;;;25.83;18.15;;;;;;;7.54;77.15;94613.81;5059676;28;20036;-75
2024/03/11 01:24:11;;;;;;;28.92;19.45;;;;;;;7.57;77.51;94622.16;5091331;28;20546;-75
2024/03/11 01:26:37;;;;;;;26.48;18.48;;;;;;;7.58;77.69;94631.56;5091724;28;20048;-75
2024/03/11 01:29:02;;;;;;;24.05;16.77;;;;;;;7.46;78.47;94631.63;5107500;28;20107;-75
2024/03/11 01:31:28;;;;;;;22.77;16.02;;;;;;;7.61;78.07;94625.34;5078100;28;20051;-75
2024/03/11 01:33:54;;;;;;;20.92;14.65;;;;;;;7.59;77.90;94625.44;5095216;28;20034;-75
2024/03/11 01:36:20;;;;;;;21.73;15.63;;;;;;;7.58;78.48;94620.41;5078220;28;20408;-75
2024/03/11 01:38:48;;;;;;;27.25;16.90;;;;;;;7.62;78.54;94624.41;5111984;28;20489;-75
2024/03/11 01:41:14;;;;;;;26.73;17.65;;;;;;;7.63;78.35;94628.63;5112154;28;20036;-75
2024/03/11 01:43:40;;;;;;;22.70;16.73;;;;;;;7.57;78.41;94629.91;5094967;28;20051;-75
2024/03/11 01:46:06;;;;;;;22.02;15.23;;;;;;;7.87;77.55;94640.69;5095050;28;20031;-75
2024/03/11 01:48:32;;;;;;;21.92;15.45;;;;;;;7.92;77.27;94636.81;5094935;28;20057;-75
2024/03/11 01:50:57;;;;;;;20.70;15.05;;;;;;;7.83;76.67;94634.94;5094990;28;20115;-75
2024/03/11 01:53:24;;;;;;;20.83;15.38;;;;;;;7.84;76.63;94639.16;5111920;28;20024;-75
2024/03/11 01:55:50;;;;;;;21.15;15.10;;;;;;;7.67;77.38;94648.16;5111889;28;20065;-75
2024/03/11 01:58:16;;;;;;;20.20;14.82;;;;;;;7.55;77.38;94608.53;5094899;28;20016;-75
2024/03/11 02:00:41;;;;;;;25.27;15.38;;;;;;;7.63;77.10;94632.97;5077890;28;20027;-75
2024/03/11 02:03:07;;;;;;;21.30;14.85;;;;;;;7.30;77.90;94590.56;5094655;28;20473;-75
2024/03/11 02:05:34;;;;;;;27.33;17.40;;;;;;;7.44;78.32;94631.78;5111752;28;20023;-75
2024/03/11 02:08:02;;;;;;;26.95;17.67;;;;;;;7.42;78.52;94635.41;5112714;28;20031;-75
2024/03/11 02:10:28;;;;;;;28.25;17.25;;;;;;;7.41;78.64;94641.47;5111427;28;20019;-75
2024/03/11 02:12:56;;;;;;;21.75;15.43;;;;;;;7.50;78.87;94633.06;5094361;28;20114;-75
2024/03/11 02:15:21;;;;;;;22.70;15.77;;;;;;;7.47;78.68;94631.53;5111452;28;20031;-75
2024/03/11 02:17:47;;;;;;;24.48;14.85;;;;;;;7.36;78.95;94627.16;5094581;28;20031;-75
2024/03/11 02:20:16;;;;;;;20.95;13.93;;;;;;;7.47;79.33;94625.56;5094777;28;20114;-75
2024/03/11 02:22:52;;;;;;;21.63;13.65;;;;;;;7.53;78.37;94630.25;5111364;28;20088;-75
2024/03/11 02:25:22;;;;;;;23.65;15.70;;;;;;;7.29;78.49;94622.53;5094436;28;20115;-75
2024/03/11 02:27:48;;;;;;;23.85;15.45;;;;;;;7.27;79.24;94629.56;5126143;27;20063;-75
2024/03/11 02:30:15;;;;;;;22.45;13.98;;;;;;;7.36;79.20;94619.41;5114780;27;20497;-75
2024/03/11 02:32:41;;;;;;;24.08;15.95;;;;;;;7.22;80.04;94635.09;5132857;27;20509;-75
2024/03/11 02:35:07;;;;;;;25.08;15.90;;;;;;;7.44;79.38;94639.53;5131827;27;20034;-75
2024/03/11 02:37:33;;;;;;;24.35;13.98;;;;;;;7.53;78.73;94633.66;5131693;27;20079;-75
2024/03/11 02:40:00;;;;;;;25.27;15.02;;;;;;;7.51;78.47;94620.03;5097409;27;20023;-75
2024/03/11 02:42:25;;;;;;;23.73;14.40;;;;;;;7.25;78.81;94588.34;5114560;27;20151;-75
2024/03/11 02:44:52;;;;;;;23.92;14.45;;;;;;;7.32;79.72;94614.56;5131445;27;20027;-75
2024/03/11 02:47:17;;;;;;;26.25;16.08;;;;;;;7.22;80.07;94603.25;5097409;27;20027;-75
2024/03/11 02:49:43;;;;;;;25.48;14.20;;;;;;;7.41;79.59;94595.81;5114169;27;20118;-75
2024/03/11 02:52:08;;;;;;;25.48;14.60;;;;;;;7.35;79.78;94596.25;5114192;27;20442;-75
2024/03/11 02:54:35;;;;;;;20.55;13.73;;;;;;;7.14;80.24;94581.38;5114177;27;20035;-75
2024/03/11 02:57:00;;;;;;;24.63;14.02;;;;;;;7.44;79.91;94584.41;5131262;27;20076;-75
2024/03/11 02:59:26;;;;;;;22.52;13.43;;;;;;;7.51;79.67;94573.50;5131397;27;20031;-75
2024/03/11 03:01:51;;;;;;;19.80;12.68;;;;;;;7.53;79.21;94579.38;5131317;27;20023;-75
2024/03/11 03:04:20;;;;;;;19.05;12.27;;;;;;;7.53;79.95;94571.63;5114091;27;20484;-75
2024/03/11 03:06:45;;;;;;;19.60;12.32;;;;;;;7.65;78.98;94566.47;5131096;27;20041;-75
2024/03/11 03:09:11;;;;;;;22.02;12.68;;;;;;;7.65;79.07;94574.22;5113958;28;20479;-75
2024/03/11 03:11:37;;;;;;;17.40;12.07;;;;;;;7.75;78.62;94588.13;5130956;27;20538;-75
2024/03/11 03:14:06;;;;;;;17.77;11.27;;;;;;;7.78;78.62;94590.47;5130876;27;20470;-75
2024/03/11 03:16:32;;;;;;;17.20;10.80;;;;;;;7.89;77.72;94600.84;5132270;27;20054;-75
2024/03/11 03:18:57;;;;;;;18.25;11.05;;;;;;;7.78;77.78;94598.25;5113712;27;20495;-75
2024/03/11 03:21:23;;;;;;;19.25;11.25;;;;;;;7.88;77.48;94601.75;5113771;28;20118;-75
2024/03/11 03:23:48;;;;;;;16.17;10.18;;;;;;;7.81;77.28;94590.25;5130801;27;20022;-75
2024/03/11 03:26:14;;;;;;;17.55;10.93;;;;;;;8.05;77.04;94621.16;5115030;27;20412;-75
2024/03/11 03:28:40;;;;;;;18.48;10.77;;;;;;;8.00;76.41;94603.44;5117019;27;20022;-75
2024/03/11 03:31:05;;;;;;;18.50;11.75;;;;;;;7.82;77.45;94608.22;5117220;27;20038;-75
2024/03/11 03:33:31;;;;;;;18.15;10.63;;;;;;;7.79;76.96;94584.34;5134206;27;20098;-75
2024/03/11 03:35:58;;;;;;;17.67;12.82;;;;;;;7.64;77.55;94588.09;5116528;27;20046;-75
2024/03/11 03:38:24;;;;;;;21.42;13.20;;;;;;;7.61;78.02;94602.91;5134368;27;20518;-75
2024/03/11 03:40:50;;;;;;;25.25;15.52;;;;;;;7.37;78.28;94618.44;5133830;27;20035;-75
2024/03/11 03:43:15;;;;;;;19.60;11.98;;;;;;;7.65;78.14;94647.44;5117170;27;20026;-75
2024/03/11 03:45:41;;;;;;;19.42;12.85;;;;;;;7.73;77.86;94633.94;5152695;27;20476;-75
2024/03/11 03:48:06;;;;;;;23.02;16.92;;;;;;;7.59;78.55;94627.22;5138349;27;20022;-75
2024/03/11 03:50:32;;;;;;;24.27;15.43;;;;;;;7.25;78.76;94580.59;5104002;27;20042;-75
2024/03/11 03:52:58;;;;;;;22.52;15.48;;;;;;;7.31;79.23;94587.91;5138385;27;20027;-75
2024/03/11 03:55:24;;;;;;;22.40;15.05;;;;;;;7.18;79.35;94581.97;5156712;27;20018;-75
2024/03/11 03:57:49;;;;;;;25.58;15.20;;;;;;;7.25;79.19;94590.94;5120970;27;20034;-75
2024/03/11 04:00:15;;;;;;;28.60;16.35;;;;;;;7.06;79.65;94604.34;5121012;27;20034;-75
2024/03/11 04:02:48;;;;;;;21.05;13.77;;;;;;;7.24;79.76;94609.13;5120929;27;20027;-75
2024/03/11 04:05:14;;;;;;;20.60;12.95;;;;;;;7.40;79.08;94591.56;5138068;27;20019;-75
2024/03/11 04:07:42;;;;;;;22.17;14.02;;;;;;;7.14;79.05;94580.56;5138083;27;20027;-75
2024/03/11 04:10:17;;;;;;;22.42;14.82;;;;;;;7.19;79.63;94587.97;5104325;27;20302;-75
2024/03/11 04:12:44;;;;;;;21.50;14.13;;;;;;;7.07;80.19;94580.16;5123221;27;20090;-75
2024/03/11 04:15:12;;;;;;;26.40;15.38;;;;;;;7.04;80.89;94590.72;5104061;27;20034;-75
2024/03/11 04:17:38;;;;;;;20.63;13.80;;;;;;;7.06;80.41;94559.63;5121039;27;20050;-75
2024/03/11 04:20:11;;;;;;;19.35;13.32;;;;;;;7.15;80.14;94587.38;5103585;27;20050;-75
2024/03/11 04:22:49;;;;;;;21.30;13.32;;;;;;;7.14;79.98;94575.41;5156629;27;20548;-75
2024/03/11 04:25:33;;;;;;;21.75;13.05;;;;;;;7.14;80.02;94583.97;5156135;27;20037;-75
2024/03/11 04:27:59;;;;;;;23.88;12.82;;;;;;;7.23;79.89;94579.06;5120253;27;20134;-75
2024/03/11 04:30:32;;;;;;;22.27;12.88;;;;;;;7.05;80.43;94584.66;5156004;27;20023;-74
2024/03/11 04:32:58;;;;;;;20.58;12.98;;;;;;;6.93;81.25;94580.34;5137558;27;20480;-75
2024/03/11 04:35:29;;;;;;;19.08;12.98;;;;;;;6.92;81.10;94584.69;5155911;27;20079;-75
2024/03/11 04:38:03;;;;;;;21.85;12.93;;;;;;;6.71;82.70;94579.31;5137630;27;20446;-74
2024/03/11 04:40:31;;;;;;;17.05;11.18;;;;;;;7.02;81.36;94581.44;5120624;27;20106;-75
2024/03/11 04:42:57;;;;;;;16.50;10.40;;;;;;;7.04;80.48;94590.72;5120379;27;20062;-75
2024/03/11 04:45:23;;;;;;;15.27;9.75;;;;;;;7.10;79.73;94594.63;5120381;27;20027;-75
2024/03/11 04:47:49;;;;;;;17.30;10.63;;;;;;;7.07;80.16;94580.16;5137007;27;20038;-75
2024/03/11 04:50:21;;;;;;;17.33;12.27;;;;;;;6.96;80.34;94582.72;5155366;27;20411;-75
2024/03/11 04:52:46;;;;;;;18.60;12.35;;;;;;;6.95;80.64;94578.47;5138143;27;20030;-75
2024/03/11 04:55:12;;;;;;;20.80;12.23;;;;;;;7.04;80.80;94575.22;5137168;27;20080;-75
2024/03/11 04:57:38;;;;;;;18.58;11.50;;;;;;;6.86;80.87;94561.09;5118771;27;20035;-75
2024/03/11 05:00:05;;;;;;;20.02;11.98;;;;;;;6.74;81.48;94569.69;5119900;27;20026;-75
2024/03/11 05:02:35;;;;;;;16.70;10.07;;;;;;;7.03;80.97;94567.59;5137156;27;20034;-75
2024/03/11 05:05:02;;;;;;;14.95;10.32;;;;;;;7.12;80.48;94570.31;5137545;27;20023;-75
2024/03/11 05:07:27;;;;;;;17.73;10.80;;;;;;;7.16;80.53;94570.94;5119737;27;20126;-75
2024/03/11 05:09:52;;;;;;;16.42;10.68;;;;;;;7.17;80.46;94580.34;5136691;27;20031;-75
2024/03/11 05:12:18;;;;;;;17.45;10.07;;;;;;;7.07;80.46;94580.16;5136792;27;20038;-75
2024/03/11 05:14:43;;;;;;;18.55;11.30;;;;;;;7.19;80.84;94588.81;5136702;27;20027;-75
2024/03/11 05:17:10;;;;;;;15.77;10.30;;;;;;;7.32;80.36;94583.53;5136636;27;20507;-75
2024/03/11 05:19:36;;;;;;;16.98;10.77;;;;;;;7.49;80.05;94597.81;5136676;27;20019;-75
2024/03/11 05:22:01;;;;;;;14.32;9.43;;;;;;;7.33;80.60;94577.47;5136514;27;20122;-75
2024/03/11 05:24:27;;;;;;;17.48;10.13;;;;;;;7.54;80.23;94596.53;5155011;27;20019;-75
2024/03/11 05:26:52;;;;;;;14.63;10.38;;;;;;;7.44;80.36;94598.16;5119179;27;20508;-75
2024/03/11 05:29:17;;;;;;;19.58;10.60;;;;;;;7.45;80.40;94597.22;5136192;27;20427;-75
2024/03/11 05:31:43;;;;;;;17.20;10.63;;;;;;;7.28;80.14;94571.81;5136296;27;20023;-75
2024/03/11 05:34:08;;;;;;;20.73;12.45;;;;;;;7.27;80.72;94550.31;5102081;27;20042;-75
2024/03/11 05:36:34;;;;;;;20.85;13.02;;;;;;;7.41;81.08;94587.22;5119101;27;20026;-75
2024/03/11 05:39:00;;;;;;;19.98;12.23;;;;;;;7.31;80.55;94566.41;5133771;27;20041;-75
2024/03/11 05:41:26;;;;;;;18.98;12.02;;;;;;;7.69;80.14;94601.50;5099504;27;20062;-75
2024/03/11 05:43:51;;;;;;;18.45;11.07;;;;;;;7.73;80.19;94600.34;5111905;27;20023;-75
2024/03/11 05:46:17;;;;;;;21.98;13.52;;;;;;;7.67;79.66;94583.53;5097426;27;20034;-74
2024/03/11 05:48:42;;;;;;;18.85;13.02;;;;;;;7.63;79.88;94602.78;5096709;27;20078;-74
2024/03/11 05:51:08;;;;;;;33.10;13.93;;;;;;;7.58;80.40;94579.06;5146653;27;20023;-74
2024/03/11 05:53:34;;;;;;;22.33;13.50;;;;;;;7.56;80.73;94563.63;5119281;27;20026;-74
2024/03/11 05:56:02;;;;;;;23.05;13.27;;;;;;;7.70;80.72;94600.56;5100478;27;20027;-75
2024/03/11 05:58:28;;;;;;;19.80;13.05;;;;;;;7.85;80.64;94612.34;5121646;27;20027;-75
2024/03/11 06:00:54;;;;;;;21.10;12.80;;;;;;;7.97;80.21;94621.78;5112666;27;20171;-75
2024/03/11 06:03:19;;;;;;;17.63;12.18;;;;;;;7.78;80.96;94603.41;5117998;27;20519;-75
2024/03/11 06:05:48;;;;;;;23.40;13.93;;;;;;;7.95;80.46;94613.31;5106501;27;20042;-75
2024/03/11 06:08:16;;;;;;;18.77;13.20;;;;;;;8.09;80.31;94608.84;5118385;27;20042;-74
2024/03/11 06:10:42;;;;;;;22.92;13.63;;;;;;;8.12;80.11;94613.78;5113268;27;20418;-75
2024/03/11 06:13:07;;;;;;;24.20;13.40;;;;;;;8.06;79.97;94605.56;5115382;27;20129;-75
2024/03/11 06:15:33;;;;;;;20.08;13.20;;;;;;;7.98;80.53;94592.38;5150255;27;20608;-75
2024/03/11 06:17:59;;;;;;;21.85;14.18;;;;;;;8.25;80.06;94612.72;5104209;27;20308;-75
2024/03/11 06:20:24;;;;;;;29.23;18.33;;;;;;;8.28;80.01;94604.72;5114681;27;20031;-75
2024/03/11 06:22:49;;;;;;;53.03;28.40;;;;;;;8.63;78.75;94619.31;5094382;27;20031;-74
2024/03/11 06:25:15;;;;;;;51.75;30.80;;;;;;;9.03;76.97;94620.53;5119205;27;20423;-75
2024/03/11 06:27:41;;;;;;;23.15;15.82;;;;;;;9.52;75.66;94608.78;5113058;27;20054;-75
2024/03/11 06:30:07;;;;;;;23.92;15.50;;;;;;;10.12;73.64;94622.00;5145033;27;20030;-75
2024/03/11 06:32:34;;;;;;;24.73;16.15;;;;;;;10.64;72.03;94605.44;5121479;27;20103;-75
2024/03/11 06:35:00;;;;;;;23.85;16.02;;;;;;;10.91;69.29;94604.00;5142210;27;20030;-75
2024/03/11 06:37:26;;;;;;;22.58;14.65;;;;;;;10.93;68.70;94620.28;5098076;27;20035;-75
2024/03/11 06:39:52;;;;;;;33.90;20.08;;;;;;;10.42;69.83;94605.63;5083158;27;20023;-75
2024/03/11 06:42:17;;;;;;;27.13;17.10;;;;;;;9.79;71.68;94593.56;5096305;27;20412;-74
2024/03/11 06:44:43;;;;;;;19.52;13.23;;;;;;;10.05;71.04;94613.91;5144273;27;20019;-75
2024/03/11 06:47:08;;;;;;;22.13;14.00;;;;;;;9.89;71.16;94624.75;5112852;27;20035;-75
2024/03/11 06:49:34;;;;;;;25.27;14.68;;;;;;;9.68;71.83;94624.75;5109106;27;20030;-75
2024/03/11 06:52:00;;;;;;;26.77;15.48;;;;;;;10.05;70.90;94626.88;5107500;27;20027;-75
2024/03/11 06:54:25;;;;;;;16.55;10.68;;;;;;;10.48;68.41;94623.28;5143523;27;20049;-75
2024/03/11 06:56:51;;;;;;;17.92;11.00;;;;;;;10.71;68.02;94616.13;5128130;27;20230;-75
2024/03/11 06:59:16;;;;;;;21.73;13.35;;;;;;;10.85;67.68;94610.53;5142838;27;20026;-75
2024/03/11 07:01:42;;;;;;;20.55;12.85;;;;;;;10.58;68.01;94616.34;5129915;27;20412;-75
2024/03/11 07:04:09;;;;;;;19.73;12.90;;;;;;;10.26;69.16;94632.88;5104132;27;20030;-75
2024/03/11 07:06:34;;;;;;;18.20;11.90;;;;;;;10.59;68.51;94624.97;5143094;27;20053;-75
2024/03/11 07:09:01;;;;;;;20.45;13.40;;;;;;;10.35;68.42;94617.50;5114132;27;20491;-75
2024/03/11 07:11:26;;;;;;;16.75;11.60;;;;;;;10.87;66.97;94613.03;5114135;27;20023;-72
2024/03/11 07:13:52;;;;;;;16.38;10.98;;;;;;;11.87;65.40;94624.97;5099683;27;20103;-74
2024/03/11 07:16:17;;;;;;;22.25;11.90;;;;;;;12.61;61.47;94634.63;5121994;27;20030;-72
2024/03/11 07:18:43;;;;;;;13.55;9.32;;;;;;;12.52;60.81;94625.91;5133421;27;20026;-76
2024/03/11 07:21:11;;;;;;;14.63;9.73;;;;;;;12.38;60.79;94629.78;5114530;27;20034;-76
2024/03/11 07:23:37;;;;;;;12.95;8.95;;;;;;;11.74;63.01;94630.44;5111512;27;20023;-75
2024/03/11 07:26:02;;;;;;;14.10;8.95;;;;;;;12.57;59.40;94617.66;5131503;27;20038;-75
2024/03/11 07:28:28;;;;;;;15.65;10.30;;;;;;;12.78;60.17;94639.09;5114916;27;20043;-76
2024/03/11 07:30:55;;;;;;;11.93;9.10;;;;;;;12.68;59.61;94627.91;5132343;27;20117;-76
2024/03/11 07:33:20;;;;;;;11.02;8.07;;;;;;;13.21;58.92;94647.25;5132303;27;20030;-76
2024/03/11 07:35:47;;;;;;;13.35;9.50;;;;;;;13.06;59.41;94642.50;5115006;27;20408;-75
2024/03/11 07:38:13;;;;;;;14.10;9.63;;;;;;;12.67;60.08;94644.50;5115118;27;20034;-75
2024/03/11 07:40:38;;;;;;;13.10;8.60;;;;;;;12.17;61.24;94637.78;5131989;27;20041;-75
2024/03/11 07:43:06;;;;;;;16.85;9.07;;;;;;;12.35;61.27;94639.69;5133089;27;20026;-76
2024/03/11 07:45:32;;;;;;;11.80;8.07;;;;;;;11.96;61.32;94645.78;5117476;27;20509;-75
2024/03/11 07:47:58;;;;;;;11.63;7.60;;;;;;;12.05;61.45;94650.16;5117286;27;20023;-75
2024/03/11 07:50:23;;;;;;;10.02;6.88;;;;;;;12.14;62.25;94648.50;5116748;27;20034;-75
2024/03/11 07:52:53;;;;;;;9.15;6.50;;;;;;;12.87;59.19;94648.66;5133806;27;20472;-75
2024/03/11 07:55:19;;;;;;;9.73;6.38;;;;;;;13.04;58.08;94631.41;5117691;27;20081;-76
2024/03/11 07:57:48;;;;;;;9.25;6.45;;;;;;;12.97;59.40;94625.94;5134132;27;20110;-75
2024/03/11 08:00:18;;;;;;;10.02;6.50;;;;;;;12.65;59.49;94631.63;5100828;27;20030;-75
2024/03/11 08:02:47;;;;;;;8.52;6.40;;;;;;;12.99;58.40;94646.69;5118391;27;20098;-75
2024/03/11 08:05:13;;;;;;;9.07;5.80;;;;;;;12.97;58.49;94652.03;5152344;27;20105;-75
2024/03/11 08:07:42;;;;;;;10.27;7.28;;;;;;;12.34;60.47;94623.25;5152661;27;20023;-75
2024/03/11 08:10:09;;;;;;;11.82;7.25;;;;;;;12.22;60.68;94646.00;5134165;27;20412;-75
2024/03/11 08:12:35;;;;;;;11.40;7.30;;;;;;;12.29;60.40;94628.06;5134202;27;20034;-75
2024/03/11 08:15:04;;;;;;;10.63;6.25;;;;;;;12.32;59.07;94624.34;5116748;27;20031;-76
2024/03/11 08:17:29;;;;;;;13.25;6.75;;;;;;;12.26;60.99;94655.19;5134285;27;20025;-76
2024/03/11 08:19:55;;;;;;;9.85;6.95;;;;;;;12.58;59.53;94635.75;5133729;27;20031;-75
2024/03/11 08:22:20;;;;;;;14.45;7.22;;;;;;;12.92;59.54;94649.03;5116572;27;20035;-75
2024/03/11 08:24:47;;;;;;;10.85;6.93;;;;;;;13.08;59.29;94658.00;5133813;27;20034;-76
2024/03/11 08:27:15;;;;;;;11.45;7.20;;;;;;;13.25;58.10;94656.41;5099905;27;20092;-76
2024/03/11 08:29:42;;;;;;;13.63;9.15;;;;;;;12.90;58.67;94665.81;5152020;27;20058;-76
2024/03/11 08:32:09;;;;;;;11.48;7.43;;;;;;;13.01;57.10;94668.22;5134495;27;20449;-76
2024/03/11 08:34:35;;;;;;;12.43;7.80;;;;;;;12.14;60.27;94664.13;5137699;27;20029;-76
2024/03/11 08:37:03;;;;;;;9.88;6.82;;;;;;;12.65;58.22;94673.31;5137551;27;20381;-76
2024/03/11 08:39:30;;;;;;;9.68;6.15;;;;;;;12.79;58.22;94666.81;5137856;27;20026;-76
2024/03/11 08:41:55;;;;;;;10.93;7.30;;;;;;;12.49;58.08;94657.47;5120487;27;20114;-75
2024/03/11 08:44:21;;;;;;;10.80;7.00;;;;;;;12.24;59.25;94648.47;5103144;27;20122;-75
2024/03/11 08:46:46;;;;;;;9.63;6.30;;;;;;;12.72;57.87;94663.13;5120087;27;20174;-76
2024/03/11 08:49:12;;;;;;;11.18;6.35;;;;;;;12.76;58.39;94646.25;5119905;27;20029;-75
2024/03/11 08:51:41;;;;;;;14.13;7.68;;;;;;;12.49;58.94;94658.28;5137288;27;20480;-75
2024/03/11 08:54:07;;;;;;;10.90;8.25;;;;;;;12.41;59.40;94650.34;5137503;27;20023;-76
2024/03/11 08:56:32;;;;;;;9.45;7.38;;;;;;;12.90;59.11;94653.59;5119848;27;20030;-76
2024/03/11 08:58:58;;;;;;;9.57;6.97;;;;;;;13.14;58.75;94647.81;5119678;27;20015;-76
2024/03/11 09:01:23;;;;;;;10.05;7.75;;;;;;;13.11;59.47;94647.28;5136986;27;20052;-76
2024/03/11 09:03:49;;;;;;;12.20;7.38;;;;;;;13.27;59.22;94651.91;5102540;27;20079;-76
2024/03/11 09:06:16;;;;;;;10.30;6.80;;;;;;;13.59;57.16;94651.38;5136888;27;20023;-76
2024/03/11 09:08:44;;;;;;;11.02;6.80;;;;;;;13.60;56.77;94638.19;5119945;27;20026;-76
2024/03/11 09:11:10;;;;;;;14.43;7.18;;;;;;;13.82;57.79;94647.34;5119850;27;20045;-76
2024/03/11 09:13:36;;;;;;;11.20;7.07;;;;;;;14.05;56.66;94639.03;5155197;27;20018;-76
2024/03/11 09:16:01;;;;;;;11.23;6.78;;;;;;;13.91;56.29;94614.28;5155020;27;20053;-76
2024/03/11 09:18:27;;;;;;;11.52;7.20;;;;;;;13.75;56.54;94614.97;5155164;27;20058;-76
2024/03/11 09:20:52;;;;;;;12.15;6.57;;;;;;;14.21;55.09;94620.06;5155177;27;20030;-76
2024/03/11 09:23:18;;;;;;;8.80;6.65;;;;;;;14.31;55.22;94632.03;5102395;27;20018;-76
2024/03/11 09:25:43;;;;;;;10.10;6.70;;;;;;;14.43;55.16;94631.75;5119292;27;20377;-76
2024/03/11 09:28:09;;;;;;;7.35;5.97;;;;;;;14.35;53.93;94636.94;5132959;27;20520;-76
2024/03/11 09:30:37;;;;;;;10.13;6.57;;;;;;;13.99;56.21;94634.44;5132860;27;20400;-76
2024/03/11 09:33:02;;;;;;;10.88;6.55;;;;;;;13.66;56.74;94608.06;5132832;27;20020;-76
2024/03/11 09:35:29;;;;;;;8.80;6.15;;;;;;;14.07;54.47;94637.09;5132856;27;20485;-76
2024/03/11 09:37:54;;;;;;;11.13;6.20;;;;;;;13.75;54.73;94604.53;5115869;27;20035;-76
2024/03/11 09:40:26;;;;;;;9.13;6.47;;;;;;;13.89;55.06;94620.63;5098641;27;20026;-76
2024/03/11 09:42:56;;;;;;;9.80;6.13;;;;;;;13.69;55.29;94609.56;5100372;27;20102;-76
2024/03/11 09:45:22;;;;;;;11.20;6.43;;;;;;;13.89;55.26;94615.41;5098866;27;20054;-76
2024/03/11 09:47:57;;;;;;;9.48;6.50;;;;;;;13.97;55.81;94618.09;5132825;27;20477;-76
2024/03/11 09:50:34;;;;;;;8.65;6.20;;;;;;;13.88;55.10;94614.59;5116439;27;20623;-76
2024/03/11 09:53:06;;;;;;;12.68;6.40;;;;;;;13.64;55.99;94599.56;5115919;27;20127;-76
2024/03/11 09:55:32;;;;;;;7.53;5.70;;;;;;;13.37;55.35;94582.19;5132655;27;20034;-76
2024/03/11 09:58:00;;;;;;;7.30;5.72;;;;;;;13.28;56.49;94594.34;5098405;27;20027;-76
2024/03/11 10:00:27;;;;;;;8.35;6.35;;;;;;;13.50;55.85;94587.03;5115540;27;20046;-76
2024/03/11 10:02:58;;;;;;;10.75;6.30;;;;;;;13.25;56.79;94578.97;5115480;27;20039;-76
2024/03/11 10:05:24;;;;;;;9.20;6.57;;;;;;;13.45;56.33;94577.06;5115725;27;20027;-76
2024/03/11 10:07:50;;;;;;;8.20;5.95;;;;;;;13.35;55.71;94574.53;5115243;27;20042;-76
2024/03/11 10:10:16;;;;;;;8.60;6.00;;;;;;;13.21;56.57;94559.38;5132025;27;20027;-76
2024/03/11 10:12:53;;;;;;;8.70;6.32;;;;;;;13.35;57.39;94571.94;5132154;27;20039;-76
2024/03/11 10:15:30;;;;;;;10.68;6.50;;;;;;;13.63;56.23;94571.81;5114777;27;20027;-76
2024/03/11 10:18:25;;;;;;;8.85;6.10;;;;;;;13.52;55.57;94579.91;5133687;27;20413;-76
2024/03/11 10:20:57;;;;;;;7.90;5.82;;;;;;;13.04;56.28;94534.09;5131961;27;20034;-76
2024/03/11 10:23:27;;;;;;;12.70;6.90;;;;;;;12.96;59.03;94566.97;5114806;27;20029;-76
2024/03/11 10:26:17;;;;;;;9.57;6.50;;;;;;;13.22;57.04;94565.41;5131956;27;20072;-76
2024/03/11 10:28:47;;;;;;;10.95;6.68;;;;;;;13.33;57.74;94568.63;5131906;27;20524;-76
2024/03/11 10:31:44;;;;;;;12.25;6.53;;;;;;;13.13;57.54;94560.13;5131876;27;20110;-76
2024/03/11 10:34:20;;;;;;;8.23;6.35;;;;;;;13.13;56.97;94544.47;5114145;27;20035;-76
2024/03/11 10:36:46;;;;;;;10.77;6.53;;;;;;;13.25;56.43;94547.66;5115603;27;20110;-76
2024/03/11 10:39:30;;;;;;;9.98;6.80;;;;;;;13.13;57.77;94547.06;5114434;27;20031;-76
2024/03/11 10:41:57;;;;;;;12.00;6.95;;;;;;;13.25;57.62;94539.84;5131829;27;20023;-76
2024/03/11 10:44:33;;;;;;;11.75;6.45;;;;;;;13.33;56.59;94531.31;5114720;27;20110;-76
2024/03/11 10:47:21;;;;;;;10.55;7.18;;;;;;;12.94;56.97;94519.34;5131499;27;20027;-76
2024/03/11 10:49:53;;;;;;;10.02;6.60;;;;;;;13.28;57.37;94533.53;5131585;27;20049;-76
2024/03/11 10:52:25;;;;;;;13.27;7.47;;;;;;;13.25;56.93;94524.19;5131427;27;20031;-76
2024/03/11 10:54:57;;;;;;;12.38;7.30;;;;;;;13.38;58.21;94529.06;5114889;27;20023;-76
2024/03/11 10:57:46;;;;;;;9.20;6.80;;;;;;;13.28;58.42;94517.88;5114092;27;20073;-76
2024/03/11 11:02:49;;;;;;;10.60;6.97;;;;;;;13.35;57.07;94482.41;5115183;27;20031;-76
2024/03/11 11:05:17;;;;;;;;;;;;;;;13.39;56.69;94470.69;5115396;27;20481;-76
2024/03/11 11:07:43;;;;;;;10.02;6.75;;;;;;;13.50;57.69;94452.16;5131280;27;19916;-76
2024/03/11 11:10:13;;;;;;;10.93;7.07;;;;;;;13.59;58.07;94458.25;5132152;27;20058;-76
2024/03/11 11:12:39;;;;;;;9.48;7.13;;;;;;;13.61;58.06;94464.16;5131027;27;20106;-76
2024/03/11 11:15:07;;;;;;;10.77;7.28;;;;;;;13.56;57.72;94467.22;5132133;27;20106;-76
2024/03/11 11:17:37;;;;;;;13.68;7.78;;;;;;;13.83;56.73;94463.63;5114366;27;20281;-76
2024/03/11 11:20:17;;;;;;;7.78;6.43;;;;;;;14.16;55.26;94460.34;5114342;27;20519;-76
2024/03/11 11:22:42;;;;;;;11.43;6.78;;;;;;;14.12;55.78;94454.59;5115759;27;20126;-76
2024/03/11 11:25:40;;;;;;;11.10;7.75;;;;;;;13.73;56.29;94462.91;5130994;27;20571;-76
2024/03/11 11:28:15;;;;;;;11.90;6.80;;;;;;;13.74;56.06;94435.03;5130871;27;20047;-76
2024/03/11 11:30:42;;;;;;;10.02;7.10;;;;;;;13.66;56.53;94443.63;5114347;27;20510;-76